sensor_id;sensor_type;location;lat;lon;timestamp;P1;durP1;ratioP1;P2;durP2;ratioP2
25667;SDS011;18003;-33.830;151.202;2023-07-16T00:02:02;10.72;;;4.58;;
25667;SDS011;18003;-33.830;151.202;2023-07-16T00:04:32;14.15;;;4.45;;
25667;SDS011;18003;-33.830;151.202;2023-07-16T00:07:02;16.67;;;4.85;;
25667;SDS011;18003;-33.830;151.202;2023-07-16T00:09:32;11.10;;;4.25;;
25667;SDS011;18003;-33.830;151.202;2023-07-16T00:12:02;12.55;;;4.47;;
25667;SDS011;18003;-33.830;151.202;2023-07-16T00:14:33;10.58;;;4.33;;
25667;SDS011;18003;-33.830;151.202;2023-07-16T00:17:04;14.47;;;4.97;;
25667;SDS011;18003;-33.830;151.202;2023-07-16T00:19:34;11.65;;;4.00;;
25667;SDS011;18003;-33.830;151.202;2023-07-16T00:22:08;11.83;;;4.67;;
25667;SDS011;18003;-33.830;151.202;2023-07-16T00:24:34;12.77;;;4.10;;
25667;SDS011;18003;-33.830;151.202;2023-07-16T00:27:05;10.25;;;4.00;;
25667;SDS011;18003;-33.830;151.202;2023-07-16T00:29:35;12.13;;;4.28;;
25667;SDS011;18003;-33.830;151.202;2023-07-16T00:32:06;12.93;;;4.30;;
25667;SDS011;18003;-33.830;151.202;2023-07-16T00:34:36;15.48;;;4.12;;
25667;SDS011;18003;-33.830;151.202;2023-07-16T00:37:06;12.18;;;4.15;;
25667;SDS011;18003;-33.830;151.202;2023-07-16T00:39:36;11.03;;;4.10;;
25667;SDS011;18003;-33.830;151.202;2023-07-16T00:42:06;13.25;;;4.37;;
25667;SDS011;18003;-33.830;151.202;2023-07-16T00:44:36;16.93;;;4.90;;
25667;SDS011;18003;-33.830;151.202;2023-07-16T00:47:06;13.00;;;4.42;;
25667;SDS011;18003;-33.830;151.202;2023-07-16T00:49:36;14.47;;;4.37;;
25667;SDS011;18003;-33.830;151.202;2023-07-16T00:52:09;10.98;;;4.37;;
25667;SDS011;18003;-33.830;151.202;2023-07-16T00:54:39;15.00;;;4.75;;
25667;SDS011;18003;-33.830;151.202;2023-07-16T00:57:09;14.90;;;5.67;;
25667;SDS011;18003;-33.830;151.202;2023-07-16T00:59:39;11.43;;;5.30;;
25667;SDS011;18003;-33.830;151.202;2023-07-16T01:02:10;13.98;;;5.22;;
25667;SDS011;18003;-33.830;151.202;2023-07-16T01:04:40;14.43;;;4.90;;
25667;SDS011;18003;-33.830;151.202;2023-07-16T01:10:32;15.40;;;5.00;;
25667;SDS011;18003;-33.830;151.202;2023-07-16T01:13:02;11.78;;;4.58;;
25667;SDS011;18003;-33.830;151.202;2023-07-16T01:15:34;10.38;;;4.72;;
25667;SDS011;18003;-33.830;151.202;2023-07-16T01:18:04;15.40;;;5.33;;
25667;SDS011;18003;-33.830;151.202;2023-07-16T01:20:35;13.90;;;5.47;;
25667;SDS011;18003;-33.830;151.202;2023-07-16T01:29:10;10.78;;;5.05;;
25667;SDS011;18003;-33.830;151.202;2023-07-16T01:31:46;14.53;;;5.15;;
25667;SDS011;18003;-33.830;151.202;2023-07-16T01:34:18;14.28;;;5.33;;
25667;SDS011;18003;-33.830;151.202;2023-07-16T01:36:49;12.98;;;5.25;;
25667;SDS011;18003;-33.830;151.202;2023-07-16T01:39:19;14.65;;;5.35;;
25667;SDS011;18003;-33.830;151.202;2023-07-16T01:41:49;15.10;;;5.15;;
25667;SDS011;18003;-33.830;151.202;2023-07-16T01:44:19;11.78;;;4.85;;
25667;SDS011;18003;-33.830;151.202;2023-07-16T01:46:53;14.65;;;4.85;;
25667;SDS011;18003;-33.830;151.202;2023-07-16T01:49:27;11.20;;;4.78;;
25667;SDS011;18003;-33.830;151.202;2023-07-16T01:51:57;15.03;;;4.80;;
25667;SDS011;18003;-33.830;151.202;2023-07-16T01:54:28;10.88;;;4.47;;
25667;SDS011;18003;-33.830;151.202;2023-07-16T01:56:58;14.15;;;5.25;;
25667;SDS011;18003;-33.830;151.202;2023-07-16T01:59:27;14.85;;;4.80;;
25667;SDS011;18003;-33.830;151.202;2023-07-16T02:01:58;12.68;;;4.95;;
25667;SDS011;18003;-33.830;151.202;2023-07-16T02:04:27;12.18;;;4.47;;
25667;SDS011;18003;-33.830;151.202;2023-07-16T02:06:58;12.33;;;4.58;;
25667;SDS011;18003;-33.830;151.202;2023-07-16T02:09:28;12.03;;;4.17;;
25667;SDS011;18003;-33.830;151.202;2023-07-16T02:11:59;11.95;;;4.00;;
25667;SDS011;18003;-33.830;151.202;2023-07-16T02:14:29;17.15;;;4.20;;
25667;SDS011;18003;-33.830;151.202;2023-07-16T02:16:59;11.35;;;4.25;;
25667;SDS011;18003;-33.830;151.202;2023-07-16T02:19:29;11.28;;;4.03;;
25667;SDS011;18003;-33.830;151.202;2023-07-16T02:21:59;13.25;;;3.80;;
25667;SDS011;18003;-33.830;151.202;2023-07-16T02:24:29;15.55;;;3.95;;
25667;SDS011;18003;-33.830;151.202;2023-07-16T02:26:59;17.55;;;4.28;;
25667;SDS011;18003;-33.830;151.202;2023-07-16T02:29:29;16.70;;;4.30;;
25667;SDS011;18003;-33.830;151.202;2023-07-16T02:32:00;10.88;;;3.50;;
25667;SDS011;18003;-33.830;151.202;2023-07-16T02:34:31;9.55;;;3.70;;
25667;SDS011;18003;-33.830;151.202;2023-07-16T02:37:01;13.13;;;4.17;;
25667;SDS011;18003;-33.830;151.202;2023-07-16T02:39:31;10.18;;;3.75;;
25667;SDS011;18003;-33.830;151.202;2023-07-16T02:42:01;9.43;;;4.10;;
25667;SDS011;18003;-33.830;151.202;2023-07-16T02:44:31;13.70;;;3.75;;
25667;SDS011;18003;-33.830;151.202;2023-07-16T02:47:03;10.50;;;3.80;;
25667;SDS011;18003;-33.830;151.202;2023-07-16T02:49:33;11.30;;;3.72;;
25667;SDS011;18003;-33.830;151.202;2023-07-16T02:52:03;13.58;;;3.95;;
25667;SDS011;18003;-33.830;151.202;2023-07-16T02:54:40;8.40;;;3.30;;
25667;SDS011;18003;-33.830;151.202;2023-07-16T02:57:05;9.28;;;3.90;;
25667;SDS011;18003;-33.830;151.202;2023-07-16T02:59:35;9.83;;;3.27;;
25667;SDS011;18003;-33.830;151.202;2023-07-16T03:02:05;9.43;;;3.72;;
25667;SDS011;18003;-33.830;151.202;2023-07-16T03:04:35;9.78;;;3.70;;
25667;SDS011;18003;-33.830;151.202;2023-07-16T03:07:05;10.72;;;3.33;;
25667;SDS011;18003;-33.830;151.202;2023-07-16T03:09:35;11.33;;;3.72;;
25667;SDS011;18003;-33.830;151.202;2023-07-16T03:12:06;11.35;;;3.40;;
25667;SDS011;18003;-33.830;151.202;2023-07-16T03:14:37;10.58;;;3.47;;
25667;SDS011;18003;-33.830;151.202;2023-07-16T03:17:07;10.53;;;4.12;;
25667;SDS011;18003;-33.830;151.202;2023-07-16T03:19:37;10.95;;;3.62;;
25667;SDS011;18003;-33.830;151.202;2023-07-16T03:22:07;9.00;;;4.03;;
25667;SDS011;18003;-33.830;151.202;2023-07-16T03:24:37;9.25;;;3.87;;
25667;SDS011;18003;-33.830;151.202;2023-07-16T03:27:08;9.90;;;4.30;;
25667;SDS011;18003;-33.830;151.202;2023-07-16T03:29:38;14.28;;;4.35;;
25667;SDS011;18003;-33.830;151.202;2023-07-16T03:32:08;11.18;;;4.25;;
25667;SDS011;18003;-33.830;151.202;2023-07-16T03:34:38;12.78;;;3.80;;
25667;SDS011;18003;-33.830;151.202;2023-07-16T03:37:09;10.65;;;3.77;;
25667;SDS011;18003;-33.830;151.202;2023-07-16T03:39:39;8.40;;;3.52;;
25667;SDS011;18003;-33.830;151.202;2023-07-16T03:42:09;8.95;;;3.27;;
25667;SDS011;18003;-33.830;151.202;2023-07-16T03:44:39;9.08;;;3.85;;
25667;SDS011;18003;-33.830;151.202;2023-07-16T03:47:09;7.75;;;3.30;;
25667;SDS011;18003;-33.830;151.202;2023-07-16T03:49:39;9.43;;;3.55;;
25667;SDS011;18003;-33.830;151.202;2023-07-16T03:52:09;10.43;;;3.30;;
25667;SDS011;18003;-33.830;151.202;2023-07-16T03:54:39;8.83;;;2.95;;
25667;SDS011;18003;-33.830;151.202;2023-07-16T03:57:09;7.90;;;3.12;;
25667;SDS011;18003;-33.830;151.202;2023-07-16T03:59:39;9.63;;;3.00;;
25667;SDS011;18003;-33.830;151.202;2023-07-16T04:02:10;6.67;;;2.80;;
25667;SDS011;18003;-33.830;151.202;2023-07-16T04:04:40;9.38;;;3.00;;
25667;SDS011;18003;-33.830;151.202;2023-07-16T04:07:10;7.62;;;3.05;;
25667;SDS011;18003;-33.830;151.202;2023-07-16T04:09:40;10.50;;;3.17;;
25667;SDS011;18003;-33.830;151.202;2023-07-16T04:12:10;9.40;;;3.10;;
25667;SDS011;18003;-33.830;151.202;2023-07-16T04:14:40;7.83;;;2.75;;
25667;SDS011;18003;-33.830;151.202;2023-07-16T04:17:10;7.85;;;3.17;;
25667;SDS011;18003;-33.830;151.202;2023-07-16T04:19:40;9.30;;;3.08;;
25667;SDS011;18003;-33.830;151.202;2023-07-16T04:22:10;7.30;;;3.20;;
25667;SDS011;18003;-33.830;151.202;2023-07-16T04:24:40;8.98;;;3.62;;
25667;SDS011;18003;-33.830;151.202;2023-07-16T04:27:10;7.42;;;2.98;;
25667;SDS011;18003;-33.830;151.202;2023-07-16T04:29:40;7.05;;;2.80;;
25667;SDS011;18003;-33.830;151.202;2023-07-16T04:32:10;6.22;;;2.65;;
25667;SDS011;18003;-33.830;151.202;2023-07-16T04:34:40;9.40;;;2.98;;
25667;SDS011;18003;-33.830;151.202;2023-07-16T04:37:10;8.38;;;3.72;;
25667;SDS011;18003;-33.830;151.202;2023-07-16T04:39:41;6.45;;;3.30;;
25667;SDS011;18003;-33.830;151.202;2023-07-16T04:42:11;7.30;;;3.15;;
25667;SDS011;18003;-33.830;151.202;2023-07-16T04:44:42;9.85;;;3.33;;
25667;SDS011;18003;-33.830;151.202;2023-07-16T04:47:12;10.58;;;3.52;;
25667;SDS011;18003;-33.830;151.202;2023-07-16T04:49:43;10.28;;;3.12;;
25667;SDS011;18003;-33.830;151.202;2023-07-16T04:52:13;8.13;;;3.27;;
25667;SDS011;18003;-33.830;151.202;2023-07-16T04:54:43;10.95;;;3.80;;
25667;SDS011;18003;-33.830;151.202;2023-07-16T04:57:13;9.60;;;3.12;;
25667;SDS011;18003;-33.830;151.202;2023-07-16T04:59:43;10.43;;;3.72;;
25667;SDS011;18003;-33.830;151.202;2023-07-16T05:02:13;11.43;;;3.67;;
25667;SDS011;18003;-33.830;151.202;2023-07-16T05:04:43;10.98;;;3.80;;
25667;SDS011;18003;-33.830;151.202;2023-07-16T05:07:14;10.90;;;4.15;;
25667;SDS011;18003;-33.830;151.202;2023-07-16T05:09:45;10.82;;;3.35;;
25667;SDS011;18003;-33.830;151.202;2023-07-16T05:12:15;8.38;;;3.42;;
25667;SDS011;18003;-33.830;151.202;2023-07-16T05:14:45;14.30;;;4.20;;
25667;SDS011;18003;-33.830;151.202;2023-07-16T05:17:16;9.23;;;3.45;;
25667;SDS011;18003;-33.830;151.202;2023-07-16T05:19:46;13.95;;;4.47;;
25667;SDS011;18003;-33.830;151.202;2023-07-16T05:22:17;13.10;;;3.73;;
25667;SDS011;18003;-33.830;151.202;2023-07-16T05:24:47;7.72;;;3.70;;
25667;SDS011;18003;-33.830;151.202;2023-07-16T05:27:17;10.05;;;4.05;;
25667;SDS011;18003;-33.830;151.202;2023-07-16T05:29:47;13.40;;;4.75;;
25667;SDS011;18003;-33.830;151.202;2023-07-16T05:32:16;8.88;;;4.58;;
25667;SDS011;18003;-33.830;151.202;2023-07-16T05:34:47;10.25;;;4.55;;
25667;SDS011;18003;-33.830;151.202;2023-07-16T05:37:17;11.65;;;4.92;;
25667;SDS011;18003;-33.830;151.202;2023-07-16T05:39:47;7.37;;;4.30;;
25667;SDS011;18003;-33.830;151.202;2023-07-16T05:42:18;8.13;;;3.92;;
25667;SDS011;18003;-33.830;151.202;2023-07-16T05:44:48;6.47;;;3.70;;
25667;SDS011;18003;-33.830;151.202;2023-07-16T05:47:18;7.80;;;3.80;;
25667;SDS011;18003;-33.830;151.202;2023-07-16T05:49:48;9.80;;;3.72;;
25667;SDS011;18003;-33.830;151.202;2023-07-16T05:52:18;9.13;;;3.70;;
25667;SDS011;18003;-33.830;151.202;2023-07-16T05:54:48;7.53;;;3.10;;
25667;SDS011;18003;-33.830;151.202;2023-07-16T05:57:18;7.58;;;3.55;;
25667;SDS011;18003;-33.830;151.202;2023-07-16T05:59:48;8.70;;;3.90;;
25667;SDS011;18003;-33.830;151.202;2023-07-16T06:02:18;5.33;;;3.30;;
25667;SDS011;18003;-33.830;151.202;2023-07-16T06:04:48;7.90;;;3.42;;
25667;SDS011;18003;-33.830;151.202;2023-07-16T06:07:18;6.90;;;3.25;;
25667;SDS011;18003;-33.830;151.202;2023-07-16T06:09:48;6.28;;;3.12;;
25667;SDS011;18003;-33.830;151.202;2023-07-16T06:12:18;9.30;;;3.85;;
25667;SDS011;18003;-33.830;151.202;2023-07-16T06:14:48;13.45;;;4.50;;
25667;SDS011;18003;-33.830;151.202;2023-07-16T06:17:18;10.72;;;3.77;;
25667;SDS011;18003;-33.830;151.202;2023-07-16T06:19:48;12.68;;;4.25;;
25667;SDS011;18003;-33.830;151.202;2023-07-16T06:22:18;9.15;;;4.30;;
25667;SDS011;18003;-33.830;151.202;2023-07-16T06:24:48;9.93;;;3.67;;
25667;SDS011;18003;-33.830;151.202;2023-07-16T06:27:18;9.13;;;3.58;;
25667;SDS011;18003;-33.830;151.202;2023-07-16T06:29:48;10.93;;;4.03;;
25667;SDS011;18003;-33.830;151.202;2023-07-16T06:32:18;10.32;;;3.92;;
25667;SDS011;18003;-33.830;151.202;2023-07-16T06:34:48;7.50;;;3.70;;
25667;SDS011;18003;-33.830;151.202;2023-07-16T06:37:18;13.48;;;3.87;;
25667;SDS011;18003;-33.830;151.202;2023-07-16T06:39:50;10.82;;;4.22;;
25667;SDS011;18003;-33.830;151.202;2023-07-16T06:42:20;10.53;;;3.83;;
25667;SDS011;18003;-33.830;151.202;2023-07-16T06:44:50;10.15;;;3.87;;
25667;SDS011;18003;-33.830;151.202;2023-07-16T06:47:20;6.95;;;3.37;;
25667;SDS011;18003;-33.830;151.202;2023-07-16T06:49:50;9.65;;;4.05;;
25667;SDS011;18003;-33.830;151.202;2023-07-16T06:52:20;8.70;;;3.67;;
25667;SDS011;18003;-33.830;151.202;2023-07-16T06:54:52;7.83;;;3.58;;
25667;SDS011;18003;-33.830;151.202;2023-07-16T06:57:23;10.67;;;3.67;;
25667;SDS011;18003;-33.830;151.202;2023-07-16T06:59:53;6.50;;;3.00;;
25667;SDS011;18003;-33.830;151.202;2023-07-16T07:02:23;9.23;;;3.35;;
25667;SDS011;18003;-33.830;151.202;2023-07-16T07:04:53;9.08;;;3.47;;
25667;SDS011;18003;-33.830;151.202;2023-07-16T07:07:23;8.25;;;3.30;;
25667;SDS011;18003;-33.830;151.202;2023-07-16T07:09:53;8.23;;;3.42;;
25667;SDS011;18003;-33.830;151.202;2023-07-16T07:12:23;8.73;;;3.25;;
25667;SDS011;18003;-33.830;151.202;2023-07-16T07:14:53;6.87;;;3.35;;
25667;SDS011;18003;-33.830;151.202;2023-07-16T07:17:23;5.00;;;2.92;;
25667;SDS011;18003;-33.830;151.202;2023-07-16T07:19:53;5.92;;;3.20;;
25667;SDS011;18003;-33.830;151.202;2023-07-16T07:22:23;8.05;;;3.08;;
25667;SDS011;18003;-33.830;151.202;2023-07-16T07:24:53;7.60;;;2.90;;
25667;SDS011;18003;-33.830;151.202;2023-07-16T07:27:23;7.55;;;3.15;;
25667;SDS011;18003;-33.830;151.202;2023-07-16T07:29:53;6.80;;;3.10;;
25667;SDS011;18003;-33.830;151.202;2023-07-16T07:32:23;8.08;;;3.30;;
25667;SDS011;18003;-33.830;151.202;2023-07-16T07:34:53;5.78;;;3.00;;
25667;SDS011;18003;-33.830;151.202;2023-07-16T07:37:23;8.28;;;3.20;;
25667;SDS011;18003;-33.830;151.202;2023-07-16T07:39:53;6.92;;;3.33;;
25667;SDS011;18003;-33.830;151.202;2023-07-16T07:42:23;6.97;;;3.10;;
25667;SDS011;18003;-33.830;151.202;2023-07-16T07:44:54;5.87;;;3.10;;
25667;SDS011;18003;-33.830;151.202;2023-07-16T07:47:25;8.28;;;3.55;;
25667;SDS011;18003;-33.830;151.202;2023-07-16T07:49:55;6.43;;;3.60;;
25667;SDS011;18003;-33.830;151.202;2023-07-16T07:52:26;6.72;;;3.33;;
25667;SDS011;18003;-33.830;151.202;2023-07-16T07:54:55;10.53;;;3.70;;
25667;SDS011;18003;-33.830;151.202;2023-07-16T07:57:25;5.50;;;3.40;;
25667;SDS011;18003;-33.830;151.202;2023-07-16T07:59:55;5.58;;;3.20;;
25667;SDS011;18003;-33.830;151.202;2023-07-16T08:02:26;7.03;;;3.45;;
25667;SDS011;18003;-33.830;151.202;2023-07-16T08:04:56;7.42;;;3.47;;
25667;SDS011;18003;-33.830;151.202;2023-07-16T08:07:26;7.42;;;3.60;;
25667;SDS011;18003;-33.830;151.202;2023-07-16T08:09:56;6.25;;;3.33;;
25667;SDS011;18003;-33.830;151.202;2023-07-16T08:12:26;7.97;;;3.60;;
25667;SDS011;18003;-33.830;151.202;2023-07-16T08:14:57;6.10;;;3.10;;
25667;SDS011;18003;-33.830;151.202;2023-07-16T08:17:28;6.28;;;3.35;;
25667;SDS011;18003;-33.830;151.202;2023-07-16T08:19:58;7.28;;;3.52;;
25667;SDS011;18003;-33.830;151.202;2023-07-16T08:22:29;7.15;;;3.42;;
25667;SDS011;18003;-33.830;151.202;2023-07-16T08:24:59;5.40;;;3.10;;
25667;SDS011;18003;-33.830;151.202;2023-07-16T08:27:30;7.03;;;3.85;;
25667;SDS011;18003;-33.830;151.202;2023-07-16T08:30:00;7.62;;;3.52;;
25667;SDS011;18003;-33.830;151.202;2023-07-16T08:32:31;6.22;;;3.27;;
25667;SDS011;18003;-33.830;151.202;2023-07-16T08:35:01;5.42;;;3.27;;
25667;SDS011;18003;-33.830;151.202;2023-07-16T08:37:32;7.47;;;3.47;;
25667;SDS011;18003;-33.830;151.202;2023-07-16T08:40:02;6.55;;;3.22;;
25667;SDS011;18003;-33.830;151.202;2023-07-16T08:42:32;3.80;;;3.05;;
25667;SDS011;18003;-33.830;151.202;2023-07-16T08:45:02;5.22;;;3.15;;
25667;SDS011;18003;-33.830;151.202;2023-07-16T08:47:33;3.35;;;2.85;;
25667;SDS011;18003;-33.830;151.202;2023-07-16T08:50:04;4.72;;;3.17;;
25667;SDS011;18003;-33.830;151.202;2023-07-16T08:52:35;4.75;;;3.30;;
25667;SDS011;18003;-33.830;151.202;2023-07-16T08:55:06;4.55;;;3.37;;
25667;SDS011;18003;-33.830;151.202;2023-07-16T08:57:37;6.03;;;2.80;;
25667;SDS011;18003;-33.830;151.202;2023-07-16T09:00:08;5.72;;;3.15;;
25667;SDS011;18003;-33.830;151.202;2023-07-16T09:02:39;6.28;;;3.42;;
25667;SDS011;18003;-33.830;151.202;2023-07-16T09:05:09;6.37;;;3.12;;
25667;SDS011;18003;-33.830;151.202;2023-07-16T09:07:40;5.53;;;3.27;;
25667;SDS011;18003;-33.830;151.202;2023-07-16T09:10:11;5.35;;;3.30;;
25667;SDS011;18003;-33.830;151.202;2023-07-16T09:12:44;5.05;;;3.15;;
25667;SDS011;18003;-33.830;151.202;2023-07-16T09:15:17;6.95;;;3.52;;
25667;SDS011;18003;-33.830;151.202;2023-07-16T09:20:17;5.70;;;3.35;;
25667;SDS011;18003;-33.830;151.202;2023-07-16T09:22:49;6.00;;;3.75;;
25667;SDS011;18003;-33.830;151.202;2023-07-16T09:25:25;5.40;;;3.70;;
25667;SDS011;18003;-33.830;151.202;2023-07-16T09:28:05;5.08;;;3.75;;
25667;SDS011;18003;-33.830;151.202;2023-07-16T09:30:32;5.78;;;3.72;;
25667;SDS011;18003;-33.830;151.202;2023-07-16T09:33:14;5.28;;;3.52;;
25667;SDS011;18003;-33.830;151.202;2023-07-16T09:35:52;6.03;;;3.80;;
25667;SDS011;18003;-33.830;151.202;2023-07-16T09:38:22;6.58;;;3.95;;
25667;SDS011;18003;-33.830;151.202;2023-07-16T09:40:52;6.15;;;3.90;;
25667;SDS011;18003;-33.830;151.202;2023-07-16T09:43:23;5.17;;;4.08;;
25667;SDS011;18003;-33.830;151.202;2023-07-16T09:45:53;6.37;;;4.30;;
25667;SDS011;18003;-33.830;151.202;2023-07-16T09:48:23;5.92;;;4.00;;
25667;SDS011;18003;-33.830;151.202;2023-07-16T09:50:54;6.87;;;4.40;;
25667;SDS011;18003;-33.830;151.202;2023-07-16T09:53:25;6.33;;;4.35;;
25667;SDS011;18003;-33.830;151.202;2023-07-16T09:55:56;7.05;;;4.45;;
25667;SDS011;18003;-33.830;151.202;2023-07-16T09:58:28;7.58;;;4.80;;
25667;SDS011;18003;-33.830;151.202;2023-07-16T10:00:58;7.78;;;4.60;;
25667;SDS011;18003;-33.830;151.202;2023-07-16T10:03:29;7.03;;;5.20;;
25667;SDS011;18003;-33.830;151.202;2023-07-16T10:06:05;8.18;;;4.85;;
25667;SDS011;18003;-33.830;151.202;2023-07-16T10:08:38;6.75;;;5.35;;
25667;SDS011;18003;-33.830;151.202;2023-07-16T10:11:15;7.65;;;5.22;;
25667;SDS011;18003;-33.830;151.202;2023-07-16T10:13:49;8.75;;;5.53;;
25667;SDS011;18003;-33.830;151.202;2023-07-16T10:16:22;7.05;;;5.40;;
25667;SDS011;18003;-33.830;151.202;2023-07-16T10:18:53;8.98;;;5.55;;
25667;SDS011;18003;-33.830;151.202;2023-07-16T10:21:25;7.22;;;5.40;;
25667;SDS011;18003;-33.830;151.202;2023-07-16T10:23:58;7.17;;;5.30;;
25667;SDS011;18003;-33.830;151.202;2023-07-16T10:26:29;9.48;;;6.08;;
25667;SDS011;18003;-33.830;151.202;2023-07-16T10:28:59;7.70;;;6.05;;
25667;SDS011;18003;-33.830;151.202;2023-07-16T10:31:29;8.60;;;6.28;;
25667;SDS011;18003;-33.830;151.202;2023-07-16T10:34:02;10.18;;;6.60;;
25667;SDS011;18003;-33.830;151.202;2023-07-16T10:36:40;8.00;;;6.30;;
25667;SDS011;18003;-33.830;151.202;2023-07-16T10:39:07;8.65;;;6.42;;
25667;SDS011;18003;-33.830;151.202;2023-07-16T10:41:37;11.28;;;7.33;;
25667;SDS011;18003;-33.830;151.202;2023-07-16T10:44:13;9.63;;;7.50;;
25667;SDS011;18003;-33.830;151.202;2023-07-16T10:46:41;9.85;;;7.90;;
25667;SDS011;18003;-33.830;151.202;2023-07-16T10:49:12;12.70;;;9.48;;
25667;SDS011;18003;-33.830;151.202;2023-07-16T10:51:43;14.18;;;9.58;;
25667;SDS011;18003;-33.830;151.202;2023-07-16T10:54:13;10.18;;;8.55;;
25667;SDS011;18003;-33.830;151.202;2023-07-16T10:56:43;10.45;;;9.03;;
25667;SDS011;18003;-33.830;151.202;2023-07-16T10:59:14;13.18;;;8.90;;
25667;SDS011;18003;-33.830;151.202;2023-07-16T11:01:45;12.53;;;9.58;;
25667;SDS011;18003;-33.830;151.202;2023-07-16T11:04:15;13.22;;;9.55;;
25667;SDS011;18003;-33.830;151.202;2023-07-16T11:06:45;9.80;;;8.78;;
25667;SDS011;18003;-33.830;151.202;2023-07-16T11:09:16;9.57;;;8.57;;
25667;SDS011;18003;-33.830;151.202;2023-07-16T11:11:46;11.63;;;9.20;;
25667;SDS011;18003;-33.830;151.202;2023-07-16T11:14:16;13.13;;;9.63;;
25667;SDS011;18003;-33.830;151.202;2023-07-16T11:16:46;14.68;;;9.60;;
25667;SDS011;18003;-33.830;151.202;2023-07-16T11:19:19;9.48;;;8.10;;
25667;SDS011;18003;-33.830;151.202;2023-07-16T11:21:48;9.83;;;8.53;;
25667;SDS011;18003;-33.830;151.202;2023-07-16T11:24:18;10.35;;;8.25;;
25667;SDS011;18003;-33.830;151.202;2023-07-16T11:26:51;8.90;;;7.40;;
25667;SDS011;18003;-33.830;151.202;2023-07-16T11:29:23;9.55;;;7.72;;
25667;SDS011;18003;-33.830;151.202;2023-07-16T11:31:53;10.03;;;7.17;;
25667;SDS011;18003;-33.830;151.202;2023-07-16T11:34:23;7.78;;;6.90;;
25667;SDS011;18003;-33.830;151.202;2023-07-16T11:36:53;7.55;;;6.58;;
25667;SDS011;18003;-33.830;151.202;2023-07-16T11:39:27;8.65;;;7.08;;
25667;SDS011;18003;-33.830;151.202;2023-07-16T11:41:56;8.00;;;6.22;;
25667;SDS011;18003;-33.830;151.202;2023-07-16T11:44:26;7.00;;;6.12;;
25667;SDS011;18003;-33.830;151.202;2023-07-16T11:49:26;8.65;;;6.28;;
25667;SDS011;18003;-33.830;151.202;2023-07-16T11:51:56;8.50;;;6.40;;
25667;SDS011;18003;-33.830;151.202;2023-07-16T11:54:27;7.33;;;6.00;;
25667;SDS011;18003;-33.830;151.202;2023-07-16T11:56:57;7.25;;;6.17;;
25667;SDS011;18003;-33.830;151.202;2023-07-16T11:59:26;7.25;;;5.72;;
25667;SDS011;18003;-33.830;151.202;2023-07-16T12:01:56;6.92;;;5.75;;
25667;SDS011;18003;-33.830;151.202;2023-07-16T12:04:27;6.80;;;5.62;;
25667;SDS011;18003;-33.830;151.202;2023-07-16T12:06:56;6.35;;;5.65;;
25667;SDS011;18003;-33.830;151.202;2023-07-16T12:09:26;8.18;;;5.80;;
25667;SDS011;18003;-33.830;151.202;2023-07-16T12:11:56;7.72;;;5.60;;
25667;SDS011;18003;-33.830;151.202;2023-07-16T12:14:27;7.45;;;5.95;;
25667;SDS011;18003;-33.830;151.202;2023-07-16T12:16:57;6.92;;;6.22;;
25667;SDS011;18003;-33.830;151.202;2023-07-16T12:19:27;7.33;;;6.17;;
25667;SDS011;18003;-33.830;151.202;2023-07-16T12:21:57;7.62;;;6.20;;
25667;SDS011;18003;-33.830;151.202;2023-07-16T12:24:28;7.15;;;5.90;;
25667;SDS011;18003;-33.830;151.202;2023-07-16T12:26:58;8.38;;;5.95;;
25667;SDS011;18003;-33.830;151.202;2023-07-16T12:29:28;7.65;;;6.00;;
25667;SDS011;18003;-33.830;151.202;2023-07-16T12:31:57;8.48;;;6.60;;
25667;SDS011;18003;-33.830;151.202;2023-07-16T12:34:27;8.28;;;6.55;;
25667;SDS011;18003;-33.830;151.202;2023-07-16T12:36:57;8.85;;;6.58;;
25667;SDS011;18003;-33.830;151.202;2023-07-16T12:39:27;9.90;;;6.72;;
25667;SDS011;18003;-33.830;151.202;2023-07-16T12:41:57;7.47;;;6.30;;
25667;SDS011;18003;-33.830;151.202;2023-07-16T12:44:26;8.33;;;6.45;;
25667;SDS011;18003;-33.830;151.202;2023-07-16T12:46:56;8.75;;;6.55;;
25667;SDS011;18003;-33.830;151.202;2023-07-16T12:49:26;8.00;;;5.70;;
25667;SDS011;18003;-33.830;151.202;2023-07-16T12:51:56;7.92;;;6.15;;
25667;SDS011;18003;-33.830;151.202;2023-07-16T12:54:26;6.95;;;5.90;;
25667;SDS011;18003;-33.830;151.202;2023-07-16T12:56:56;6.37;;;5.60;;
25667;SDS011;18003;-33.830;151.202;2023-07-16T12:59:26;9.00;;;5.75;;
25667;SDS011;18003;-33.830;151.202;2023-07-16T13:01:56;7.00;;;5.80;;
25667;SDS011;18003;-33.830;151.202;2023-07-16T13:04:26;7.28;;;5.37;;
25667;SDS011;18003;-33.830;151.202;2023-07-16T13:06:56;6.60;;;5.00;;
25667;SDS011;18003;-33.830;151.202;2023-07-16T13:09:26;7.37;;;5.42;;
25667;SDS011;18003;-33.830;151.202;2023-07-16T13:11:56;7.47;;;5.20;;
25667;SDS011;18003;-33.830;151.202;2023-07-16T13:14:26;6.65;;;5.33;;
25667;SDS011;18003;-33.830;151.202;2023-07-16T13:16:56;7.30;;;5.40;;
25667;SDS011;18003;-33.830;151.202;2023-07-16T13:19:27;6.57;;;5.53;;
25667;SDS011;18003;-33.830;151.202;2023-07-16T13:21:57;8.45;;;6.55;;
25667;SDS011;18003;-33.830;151.202;2023-07-16T13:24:27;6.70;;;5.60;;
25667;SDS011;18003;-33.830;151.202;2023-07-16T13:26:57;8.30;;;6.08;;
25667;SDS011;18003;-33.830;151.202;2023-07-16T13:29:27;6.40;;;5.80;;
25667;SDS011;18003;-33.830;151.202;2023-07-16T13:31:57;7.87;;;6.10;;
25667;SDS011;18003;-33.830;151.202;2023-07-16T13:34:27;10.20;;;6.65;;
25667;SDS011;18003;-33.830;151.202;2023-07-16T13:36:57;7.40;;;6.58;;
25667;SDS011;18003;-33.830;151.202;2023-07-16T13:39:27;8.93;;;7.12;;
25667;SDS011;18003;-33.830;151.202;2023-07-16T13:41:57;8.48;;;7.05;;
25667;SDS011;18003;-33.830;151.202;2023-07-16T13:44:27;9.78;;;7.22;;
25667;SDS011;18003;-33.830;151.202;2023-07-16T13:46:57;9.35;;;7.42;;
25667;SDS011;18003;-33.830;151.202;2023-07-16T13:49:27;9.28;;;7.60;;
25667;SDS011;18003;-33.830;151.202;2023-07-16T13:51:57;11.80;;;8.88;;
25667;SDS011;18003;-33.830;151.202;2023-07-16T13:54:27;10.72;;;8.55;;
25667;SDS011;18003;-33.830;151.202;2023-07-16T13:56:57;10.85;;;8.18;;
25667;SDS011;18003;-33.830;151.202;2023-07-16T13:59:28;9.10;;;7.70;;
25667;SDS011;18003;-33.830;151.202;2023-07-16T14:02:01;11.00;;;7.60;;
25667;SDS011;18003;-33.830;151.202;2023-07-16T14:04:32;7.50;;;6.70;;
25667;SDS011;18003;-33.830;151.202;2023-07-16T14:07:02;7.30;;;6.47;;
25667;SDS011;18003;-33.830;151.202;2023-07-16T14:09:32;7.75;;;6.78;;
25667;SDS011;18003;-33.830;151.202;2023-07-16T14:12:03;8.75;;;6.50;;
25667;SDS011;18003;-33.830;151.202;2023-07-16T14:14:33;8.70;;;6.80;;
25667;SDS011;18003;-33.830;151.202;2023-07-16T14:17:03;7.10;;;6.22;;
25667;SDS011;18003;-33.830;151.202;2023-07-16T14:19:34;7.85;;;6.22;;
25667;SDS011;18003;-33.830;151.202;2023-07-16T14:22:04;9.58;;;6.40;;
25667;SDS011;18003;-33.830;151.202;2023-07-16T14:24:35;9.25;;;6.53;;
25667;SDS011;18003;-33.830;151.202;2023-07-16T14:27:06;8.08;;;6.05;;
25667;SDS011;18003;-33.830;151.202;2023-07-16T14:29:36;7.33;;;5.87;;
25667;SDS011;18003;-33.830;151.202;2023-07-16T14:32:07;7.58;;;6.00;;
25667;SDS011;18003;-33.830;151.202;2023-07-16T14:34:37;6.15;;;5.55;;
25667;SDS011;18003;-33.830;151.202;2023-07-16T14:37:07;6.62;;;5.67;;